sensor_id;sensor_type;location;lat;lon;timestamp;P1;durP1;ratioP1;P2;durP2;ratioP2
45434;SDS011;31183;47.404;8.500;2024-03-23T00:53:47;5.43;;;2.92;;
45434;SDS011;31183;47.404;8.500;2024-03-23T00:56:13;3.85;;;2.90;;
45434;SDS011;31183;47.404;8.500;2024-03-23T00:58:39;3.78;;;3.00;;
45434;SDS011;31183;47.404;8.500;2024-03-23T01:01:04;4.47;;;2.47;;
45434;SDS011;31183;47.404;8.500;2024-03-23T01:03:30;5.38;;;2.55;;
45434;SDS011;31183;47.404;8.500;2024-03-23T01:05:59;5.05;;;2.75;;
45434;SDS011;31183;47.404;8.500;2024-03-23T01:08:26;5.82;;;2.92;;
45434;SDS011;31183;47.404;8.500;2024-03-23T01:10:58;5.80;;;2.90;;
45434;SDS011;31183;47.404;8.500;2024-03-23T01:13:25;4.03;;;3.17;;
45434;SDS011;31183;47.404;8.500;2024-03-23T01:15:52;4.13;;;2.50;;
45434;SDS011;31183;47.404;8.500;2024-03-23T01:18:19;2.80;;;2.50;;
45434;SDS011;31183;47.404;8.500;2024-03-23T01:20:45;4.38;;;2.78;;
45434;SDS011;31183;47.404;8.500;2024-03-23T01:23:11;2.83;;;2.60;;
45434;SDS011;31183;47.404;8.500;2024-03-23T01:25:37;4.38;;;2.17;;
45434;SDS011;31183;47.404;8.500;2024-03-23T01:28:03;4.78;;;2.67;;
45434;SDS011;31183;47.404;8.500;2024-03-23T01:30:29;4.97;;;2.65;;
45434;SDS011;31183;47.404;8.500;2024-03-23T01:32:55;2.67;;;2.38;;
45434;SDS011;31183;47.404;8.500;2024-03-23T01:35:21;4.88;;;2.65;;
45434;SDS011;31183;47.404;8.500;2024-03-23T01:37:47;4.03;;;2.60;;
45434;SDS011;31183;47.404;8.500;2024-03-23T01:40:13;3.45;;;2.60;;
45434;SDS011;31183;47.404;8.500;2024-03-23T01:42:39;2.67;;;2.42;;
45434;SDS011;31183;47.404;8.500;2024-03-23T01:45:08;5.90;;;2.80;;
45434;SDS011;31183;47.404;8.500;2024-03-23T01:47:37;4.03;;;2.67;;
45434;SDS011;31183;47.404;8.500;2024-03-23T01:50:03;3.53;;;2.42;;
45434;SDS011;31183;47.404;8.500;2024-03-23T01:52:30;5.38;;;2.80;;
45434;SDS011;31183;47.404;8.500;2024-03-23T01:54:56;4.60;;;3.00;;
45434;SDS011;31183;47.404;8.500;2024-03-23T01:57:21;3.03;;;2.72;;
45434;SDS011;31183;47.404;8.500;2024-03-23T01:59:47;4.72;;;2.47;;
45434;SDS011;31183;47.404;8.500;2024-03-23T02:02:13;2.75;;;2.45;;
45434;SDS011;31183;47.404;8.500;2024-03-23T02:04:39;3.00;;;2.05;;
45434;SDS011;31183;47.404;8.500;2024-03-23T02:07:06;5.30;;;2.85;;
45434;SDS011;31183;47.404;8.500;2024-03-23T02:09:32;3.00;;;2.35;;
45434;SDS011;31183;47.404;8.500;2024-03-23T02:11:58;2.83;;;2.40;;
45434;SDS011;31183;47.404;8.500;2024-03-23T02:14:27;4.45;;;2.58;;
45434;SDS011;31183;47.404;8.500;2024-03-23T02:16:52;4.13;;;2.55;;
45434;SDS011;31183;47.404;8.500;2024-03-23T02:19:18;4.32;;;2.22;;
45434;SDS011;31183;47.404;8.500;2024-03-23T02:21:44;6.35;;;2.65;;
45434;SDS011;31183;47.404;8.500;2024-03-23T02:24:09;3.33;;;2.50;;
45434;SDS011;31183;47.404;8.500;2024-03-23T02:26:35;3.60;;;2.65;;
45434;SDS011;31183;47.404;8.500;2024-03-23T02:29:01;3.15;;;2.67;;
45434;SDS011;31183;47.404;8.500;2024-03-23T02:31:26;4.13;;;2.25;;
45434;SDS011;31183;47.404;8.500;2024-03-23T02:33:52;3.75;;;2.20;;
45434;SDS011;31183;47.404;8.500;2024-03-23T02:36:18;4.20;;;2.25;;
45434;SDS011;31183;47.404;8.500;2024-03-23T02:38:46;4.72;;;2.33;;
45434;SDS011;31183;47.404;8.500;2024-03-23T02:41:12;3.05;;;2.33;;
45434;SDS011;31183;47.404;8.500;2024-03-23T02:43:38;3.45;;;2.20;;
45434;SDS011;31183;47.404;8.500;2024-03-23T02:46:04;4.22;;;2.55;;
45434;SDS011;31183;47.404;8.500;2024-03-23T02:48:30;2.85;;;2.20;;
45434;SDS011;31183;47.404;8.500;2024-03-23T02:50:56;3.25;;;2.05;;
45434;SDS011;31183;47.404;8.500;2024-03-23T02:53:21;2.60;;;2.33;;
45434;SDS011;31183;47.404;8.500;2024-03-23T02:55:47;6.00;;;2.10;;
45434;SDS011;31183;47.404;8.500;2024-03-23T02:58:13;3.30;;;2.15;;
45434;SDS011;31183;47.404;8.500;2024-03-23T03:00:39;3.20;;;2.38;;
45434;SDS011;31183;47.404;8.500;2024-03-23T03:03:05;5.45;;;1.90;;
45434;SDS011;31183;47.404;8.500;2024-03-23T03:05:32;3.72;;;2.30;;
45434;SDS011;31183;47.404;8.500;2024-03-23T03:07:58;3.42;;;2.50;;
45434;SDS011;31183;47.404;8.500;2024-03-23T03:10:24;2.95;;;2.35;;
45434;SDS011;31183;47.404;8.500;2024-03-23T03:12:49;3.28;;;1.90;;
45434;SDS011;31183;47.404;8.500;2024-03-23T03:15:15;4.03;;;2.05;;
45434;SDS011;31183;47.404;8.500;2024-03-23T03:17:41;2.70;;;2.25;;
45434;SDS011;31183;47.404;8.500;2024-03-23T03:20:07;3.22;;;2.00;;
45434;SDS011;31183;47.404;8.500;2024-03-23T03:22:38;2.60;;;2.08;;
45434;SDS011;31183;47.404;8.500;2024-03-23T03:25:04;2.72;;;2.03;;
45434;SDS011;31183;47.404;8.500;2024-03-23T03:27:32;3.53;;;2.38;;
45434;SDS011;31183;47.404;8.500;2024-03-23T03:29:59;3.72;;;2.42;;
45434;SDS011;31183;47.404;8.500;2024-03-23T03:32:28;2.75;;;2.55;;
45434;SDS011;31183;47.404;8.500;2024-03-23T03:34:54;4.88;;;2.55;;
45434;SDS011;31183;47.404;8.500;2024-03-23T03:37:20;2.58;;;2.13;;
45434;SDS011;31183;47.404;8.500;2024-03-23T03:39:46;4.55;;;2.65;;
45434;SDS011;31183;47.404;8.500;2024-03-23T03:42:11;5.43;;;2.75;;
45434;SDS011;31183;47.404;8.500;2024-03-23T03:44:37;3.78;;;2.00;;
45434;SDS011;31183;47.404;8.500;2024-03-23T03:47:03;5.70;;;2.20;;
45434;SDS011;31183;47.404;8.500;2024-03-23T03:49:30;5.40;;;2.75;;
45434;SDS011;31183;47.404;8.500;2024-03-23T03:51:56;3.72;;;2.47;;
45434;SDS011;31183;47.404;8.500;2024-03-23T03:54:22;4.22;;;2.15;;
45434;SDS011;31183;47.404;8.500;2024-03-23T03:56:47;4.50;;;2.92;;
45434;SDS011;31183;47.404;8.500;2024-03-23T03:59:13;5.60;;;2.78;;
45434;SDS011;31183;47.404;8.500;2024-03-23T04:01:39;3.70;;;2.58;;
45434;SDS011;31183;47.404;8.500;2024-03-23T04:04:05;5.25;;;2.30;;
45434;SDS011;31183;47.404;8.500;2024-03-23T04:06:31;3.53;;;2.90;;
45434;SDS011;31183;47.404;8.500;2024-03-23T04:08:58;5.90;;;2.70;;
45434;SDS011;31183;47.404;8.500;2024-03-23T04:11:24;4.35;;;2.40;;
45434;SDS011;31183;47.404;8.500;2024-03-23T04:13:50;5.90;;;2.42;;
45434;SDS011;31183;47.404;8.500;2024-03-23T04:16:29;5.68;;;2.72;;
45434;SDS011;31183;47.404;8.500;2024-03-23T04:18:59;3.15;;;2.55;;
45434;SDS011;31183;47.404;8.500;2024-03-23T04:21:25;3.13;;;2.60;;
45434;SDS011;31183;47.404;8.500;2024-03-23T04:23:51;3.72;;;2.80;;
45434;SDS011;31183;47.404;8.500;2024-03-23T04:26:17;4.65;;;2.40;;
45434;SDS011;31183;47.404;8.500;2024-03-23T04:28:43;4.00;;;2.70;;
45434;SDS011;31183;47.404;8.500;2024-03-23T04:31:09;4.47;;;2.38;;
45434;SDS011;31183;47.404;8.500;2024-03-23T04:33:35;2.78;;;2.35;;
45434;SDS011;31183;47.404;8.500;2024-03-23T04:36:01;4.75;;;2.70;;
45434;SDS011;31183;47.404;8.500;2024-03-23T04:38:28;5.75;;;3.20;;
45434;SDS011;31183;47.404;8.500;2024-03-23T04:40:54;4.60;;;2.63;;
45434;SDS011;31183;47.404;8.500;2024-03-23T04:43:21;2.83;;;2.13;;
45434;SDS011;31183;47.404;8.500;2024-03-23T04:45:46;5.18;;;2.30;;
45434;SDS011;31183;47.404;8.500;2024-03-23T04:48:12;4.68;;;2.67;;
45434;SDS011;31183;47.404;8.500;2024-03-23T04:50:38;5.40;;;2.80;;
45434;SDS011;31183;47.404;8.500;2024-03-23T04:53:04;5.78;;;2.50;;
45434;SDS011;31183;47.404;8.500;2024-03-23T04:55:29;4.57;;;2.70;;
45434;SDS011;31183;47.404;8.500;2024-03-23T04:57:56;4.35;;;2.28;;
45434;SDS011;31183;47.404;8.500;2024-03-23T05:00:21;4.22;;;2.78;;
45434;SDS011;31183;47.404;8.500;2024-03-23T05:02:48;3.42;;;2.80;;
45434;SDS011;31183;47.404;8.500;2024-03-23T05:05:14;4.82;;;3.53;;
45434;SDS011;31183;47.404;8.500;2024-03-23T05:07:40;3.95;;;2.50;;
45434;SDS011;31183;47.404;8.500;2024-03-23T05:10:07;3.95;;;2.60;;
45434;SDS011;31183;47.404;8.500;2024-03-23T05:12:36;6.22;;;2.72;;
45434;SDS011;31183;47.404;8.500;2024-03-23T05:15:04;3.35;;;2.58;;
45434;SDS011;31183;47.404;8.500;2024-03-23T05:17:31;5.18;;;2.92;;
45434;SDS011;31183;47.404;8.500;2024-03-23T05:19:57;4.18;;;2.65;;
45434;SDS011;31183;47.404;8.500;2024-03-23T05:22:23;4.05;;;2.70;;
45434;SDS011;31183;47.404;8.500;2024-03-23T05:24:48;4.68;;;2.92;;
45434;SDS011;31183;47.404;8.500;2024-03-23T05:27:14;7.50;;;2.58;;
45434;SDS011;31183;47.404;8.500;2024-03-23T05:29:40;7.45;;;3.70;;
45434;SDS011;31183;47.404;8.500;2024-03-23T05:32:06;6.20;;;3.83;;
45434;SDS011;31183;47.404;8.500;2024-03-23T05:34:32;5.75;;;3.75;;
45434;SDS011;31183;47.404;8.500;2024-03-23T05:36:58;5.90;;;4.13;;
45434;SDS011;31183;47.404;8.500;2024-03-23T05:39:23;6.85;;;4.40;;
45434;SDS011;31183;47.404;8.500;2024-03-23T05:41:49;4.57;;;4.10;;
45434;SDS011;31183;47.404;8.500;2024-03-23T05:44:15;6.15;;;4.45;;
45434;SDS011;31183;47.404;8.500;2024-03-23T05:46:41;9.45;;;4.18;;
45434;SDS011;31183;47.404;8.500;2024-03-23T05:49:07;8.18;;;4.32;;
45434;SDS011;31183;47.404;8.500;2024-03-23T05:51:33;12.82;;;5.10;;
45434;SDS011;31183;47.404;8.500;2024-03-23T05:53:59;6.10;;;4.85;;
45434;SDS011;31183;47.404;8.500;2024-03-23T05:56:24;5.10;;;3.65;;
45434;SDS011;31183;47.404;8.500;2024-03-23T05:58:51;6.35;;;4.22;;
45434;SDS011;31183;47.404;8.500;2024-03-23T06:01:17;7.22;;;4.07;;
45434;SDS011;31183;47.404;8.500;2024-03-23T06:03:42;7.60;;;4.32;;
45434;SDS011;31183;47.404;8.500;2024-03-23T06:06:09;5.63;;;3.70;;
45434;SDS011;31183;47.404;8.500;2024-03-23T06:08:37;5.38;;;3.65;;
45434;SDS011;31183;47.404;8.500;2024-03-23T06:11:03;5.40;;;3.35;;
45434;SDS011;31183;47.404;8.500;2024-03-23T06:13:31;5.25;;;3.50;;
45434;SDS011;31183;47.404;8.500;2024-03-23T06:16:00;4.65;;;3.63;;
45434;SDS011;31183;47.404;8.500;2024-03-23T06:18:26;5.20;;;4.20;;
45434;SDS011;31183;47.404;8.500;2024-03-23T06:20:53;7.47;;;4.88;;
45434;SDS011;31183;47.404;8.500;2024-03-23T06:23:19;6.65;;;5.95;;
45434;SDS011;31183;47.404;8.500;2024-03-23T06:25:46;6.28;;;4.55;;
45434;SDS011;31183;47.404;8.500;2024-03-23T06:28:12;6.82;;;5.22;;
45434;SDS011;31183;47.404;8.500;2024-03-23T06:30:37;6.90;;;5.40;;
45434;SDS011;31183;47.404;8.500;2024-03-23T06:33:03;6.63;;;5.40;;
45434;SDS011;31183;47.404;8.500;2024-03-23T06:35:31;9.00;;;5.65;;
45434;SDS011;31183;47.404;8.500;2024-03-23T06:37:56;8.73;;;5.55;;
45434;SDS011;31183;47.404;8.500;2024-03-23T06:40:23;5.82;;;5.25;;
45434;SDS011;31183;47.404;8.500;2024-03-23T06:42:49;7.63;;;5.38;;
45434;SDS011;31183;47.404;8.500;2024-03-23T06:45:15;8.23;;;5.35;;
45434;SDS011;31183;47.404;8.500;2024-03-23T06:47:41;9.40;;;5.65;;
45434;SDS011;31183;47.404;8.500;2024-03-23T06:50:07;7.05;;;5.05;;
45434;SDS011;31183;47.404;8.500;2024-03-23T06:52:35;8.05;;;5.60;;
45434;SDS011;31183;47.404;8.500;2024-03-23T06:55:01;10.05;;;5.95;;
45434;SDS011;31183;47.404;8.500;2024-03-23T06:57:29;7.07;;;5.15;;
45434;SDS011;31183;47.404;8.500;2024-03-23T06:59:55;8.85;;;6.15;;
45434;SDS011;31183;47.404;8.500;2024-03-23T07:02:21;7.82;;;5.53;;
45434;SDS011;31183;47.404;8.500;2024-03-23T07:04:47;8.10;;;6.10;;
45434;SDS011;31183;47.404;8.500;2024-03-23T07:07:12;13.90;;;5.80;;
45434;SDS011;31183;47.404;8.500;2024-03-23T07:09:38;9.35;;;6.10;;
45434;SDS011;31183;47.404;8.500;2024-03-23T07:12:04;7.53;;;5.07;;
45434;SDS011;31183;47.404;8.500;2024-03-23T07:14:30;6.18;;;5.13;;
45434;SDS011;31183;47.404;8.500;2024-03-23T07:16:56;11.32;;;4.47;;
45434;SDS011;31183;47.404;8.500;2024-03-23T07:19:22;5.53;;;4.80;;
45434;SDS011;31183;47.404;8.500;2024-03-23T07:21:49;4.50;;;3.80;;
45434;SDS011;31183;47.404;8.500;2024-03-23T07:24:15;6.03;;;3.58;;
45434;SDS011;31183;47.404;8.500;2024-03-23T07:26:41;6.20;;;3.80;;
45434;SDS011;31183;47.404;8.500;2024-03-23T07:29:07;7.63;;;3.67;;
45434;SDS011;31183;47.404;8.500;2024-03-23T07:31:32;4.15;;;3.22;;
45434;SDS011;31183;47.404;8.500;2024-03-23T07:33:58;3.55;;;3.15;;
45434;SDS011;31183;47.404;8.500;2024-03-23T07:36:24;7.05;;;3.63;;
45434;SDS011;31183;47.404;8.500;2024-03-23T07:38:50;7.55;;;3.92;;
45434;SDS011;31183;47.404;8.500;2024-03-23T07:41:16;3.95;;;2.75;;
45434;SDS011;31183;47.404;8.500;2024-03-23T07:43:44;3.85;;;2.63;;
45434;SDS011;31183;47.404;8.500;2024-03-23T07:46:10;3.40;;;2.80;;
45434;SDS011;31183;47.404;8.500;2024-03-23T07:48:37;3.45;;;2.45;;
45434;SDS011;31183;47.404;8.500;2024-03-23T07:51:04;3.35;;;2.38;;
45434;SDS011;31183;47.404;8.500;2024-03-23T07:53:32;3.03;;;2.38;;
45434;SDS011;31183;47.404;8.500;2024-03-23T07:56:03;3.13;;;1.70;;
45434;SDS011;31183;47.404;8.500;2024-03-23T07:58:33;1.30;;;1.20;;
45434;SDS011;31183;47.404;8.500;2024-03-23T08:01:09;1.80;;;1.00;;
45434;SDS011;31183;47.404;8.500;2024-03-23T08:03:43;2.05;;;0.70;;
45434;SDS011;31183;47.404;8.500;2024-03-23T08:08:39;0.70;;;0.70;;
45434;SDS011;31183;47.404;8.500;2024-03-23T08:11:05;0.80;;;0.80;;
45434;SDS011;31183;47.404;8.500;2024-03-23T08:13:31;2.17;;;0.70;;
45434;SDS011;31183;47.404;8.500;2024-03-23T08:15:58;2.33;;;0.70;;
45434;SDS011;31183;47.404;8.500;2024-03-23T08:18:24;0.70;;;0.60;;
45434;SDS011;31183;47.404;8.500;2024-03-23T08:21:03;0.68;;;0.43;;
45434;SDS011;31183;47.404;8.500;2024-03-23T08:23:31;2.40;;;0.50;;
45434;SDS011;31183;47.404;8.500;2024-03-23T08:26:05;2.50;;;0.80;;
45434;SDS011;31183;47.404;8.500;2024-03-23T08:28:32;1.05;;;0.50;;
45434;SDS011;31183;47.404;8.500;2024-03-23T08:31:00;1.92;;;0.52;;
45434;SDS011;31183;47.404;8.500;2024-03-23T08:33:27;1.08;;;0.60;;
45434;SDS011;31183;47.404;8.500;2024-03-23T08:35:57;1.58;;;0.50;;
45434;SDS011;31183;47.404;8.500;2024-03-23T08:38:24;2.13;;;1.35;;
45434;SDS011;31183;47.404;8.500;2024-03-23T08:41:00;1.58;;;0.65;;
45434;SDS011;31183;47.404;8.500;2024-03-23T08:43:31;5.37;;;1.27;;
45434;SDS011;31183;47.404;8.500;2024-03-23T08:46:05;3.45;;;0.73;;
45434;SDS011;31183;47.404;8.500;2024-03-23T08:48:35;4.95;;;0.77;;
45434;SDS011;31183;47.404;8.500;2024-03-23T08:53:33;1.98;;;0.95;;
45434;SDS011;31183;47.404;8.500;2024-03-23T08:56:02;4.50;;;1.25;;
45434;SDS011;31183;47.404;8.500;2024-03-23T08:58:29;9.48;;;1.52;;
45434;SDS011;31183;47.404;8.500;2024-03-23T09:01:02;3.55;;;1.60;;
45434;SDS011;31183;47.404;8.500;2024-03-23T09:03:31;3.72;;;1.38;;
45434;SDS011;31183;47.404;8.500;2024-03-23T09:05:56;4.50;;;1.70;;
45434;SDS011;31183;47.404;8.500;2024-03-23T09:08:23;4.57;;;2.00;;
45434;SDS011;31183;47.404;8.500;2024-03-23T09:10:49;4.13;;;1.85;;
45434;SDS011;31183;47.404;8.500;2024-03-23T09:13:15;4.13;;;2.08;;
45434;SDS011;31183;47.404;8.500;2024-03-23T09:15:48;3.80;;;1.80;;
45434;SDS011;31183;47.404;8.500;2024-03-23T09:18:15;6.35;;;2.15;;
45434;SDS011;31183;47.404;8.500;2024-03-23T09:20:41;8.38;;;2.53;;
45434;SDS011;31183;47.404;8.500;2024-03-23T09:23:08;2.13;;;1.42;;
45434;SDS011;31183;47.404;8.500;2024-03-23T09:25:40;4.88;;;1.83;;
45434;SDS011;31183;47.404;8.500;2024-03-23T09:28:06;5.45;;;1.52;;
45434;SDS011;31183;47.404;8.500;2024-03-23T09:30:34;9.32;;;3.20;;
45434;SDS011;31183;47.404;8.500;2024-03-23T09:33:00;6.80;;;2.40;;
45434;SDS011;31183;47.404;8.500;2024-03-23T09:35:26;5.72;;;2.08;;
45434;SDS011;31183;47.404;8.500;2024-03-23T09:37:52;7.03;;;1.77;;
45434;SDS011;31183;47.404;8.500;2024-03-23T09:40:18;6.50;;;2.42;;
45434;SDS011;31183;47.404;8.500;2024-03-23T09:42:49;5.55;;;2.17;;
45434;SDS011;31183;47.404;8.500;2024-03-23T09:45:23;7.50;;;2.97;;
45434;SDS011;31183;47.404;8.500;2024-03-23T09:47:52;6.60;;;2.38;;
45434;SDS011;31183;47.404;8.500;2024-03-23T09:50:19;9.48;;;3.22;;
45434;SDS011;31183;47.404;8.500;2024-03-23T09:52:45;7.40;;;2.25;;
45434;SDS011;31183;47.404;8.500;2024-03-23T09:55:11;6.35;;;2.10;;
45434;SDS011;31183;47.404;8.500;2024-03-23T09:57:39;8.02;;;2.25;;
45434;SDS011;31183;47.404;8.500;2024-03-23T10:00:05;8.65;;;2.63;;
45434;SDS011;31183;47.404;8.500;2024-03-23T10:02:32;7.10;;;2.67;;
45434;SDS011;31183;47.404;8.500;2024-03-23T10:04:59;9.32;;;2.30;;
45434;SDS011;31183;47.404;8.500;2024-03-23T10:07:25;9.32;;;2.47;;
45434;SDS011;31183;47.404;8.500;2024-03-23T10:09:53;8.02;;;2.50;;
45434;SDS011;31183;47.404;8.500;2024-03-23T10:12:19;8.90;;;2.75;;
45434;SDS011;31183;47.404;8.500;2024-03-23T10:14:45;5.53;;;2.55;;
45434;SDS011;31183;47.404;8.500;2024-03-23T10:19:40;8.95;;;2.33;;
45434;SDS011;31183;47.404;8.500;2024-03-23T10:22:08;6.78;;;2.35;;
45434;SDS011;31183;47.404;8.500;2024-03-23T10:24:43;9.48;;;3.30;;
45434;SDS011;31183;47.404;8.500;2024-03-23T10:27:09;6.55;;;2.83;;
45434;SDS011;31183;47.404;8.500;2024-03-23T10:29:40;8.07;;;2.95;;
45434;SDS011;31183;47.404;8.500;2024-03-23T10:32:09;5.22;;;2.33;;
45434;SDS011;31183;47.404;8.500;2024-03-23T10:34:39;10.32;;;3.05;;
45434;SDS011;31183;47.404;8.500;2024-03-23T10:37:05;9.07;;;2.97;;
45434;SDS011;31183;47.404;8.500;2024-03-23T10:39:33;11.27;;;3.15;;
45434;SDS011;31183;47.404;8.500;2024-03-23T10:42:02;6.60;;;2.08;;
45434;SDS011;31183;47.404;8.500;2024-03-23T10:44:36;9.48;;;2.38;;
45434;SDS011;31183;47.404;8.500;2024-03-23T10:47:02;7.40;;;2.03;;
45434;SDS011;31183;47.404;8.500;2024-03-23T10:49:29;4.78;;;2.30;;
45434;SDS011;31183;47.404;8.500;2024-03-23T10:51:59;7.40;;;2.17;;
45434;SDS011;31183;47.404;8.500;2024-03-23T10:54:27;5.57;;;2.05;;
45434;SDS011;31183;47.404;8.500;2024-03-23T10:57:05;6.90;;;1.88;;
45434;SDS011;31183;47.404;8.500;2024-03-23T10:59:35;7.85;;;2.33;;
45434;SDS011;31183;47.404;8.500;2024-03-23T11:02:03;5.82;;;1.52;;
45434;SDS011;31183;47.404;8.500;2024-03-23T11:04:33;7.47;;;1.98;;
45434;SDS011;31183;47.404;8.500;2024-03-23T11:07:00;6.95;;;1.70;;
45434;SDS011;31183;47.404;8.500;2024-03-23T11:09:39;6.30;;;1.70;;
45434;SDS011;31183;47.404;8.500;2024-03-23T11:15:06;2.15;;;1.42;;
45434;SDS011;31183;47.404;8.500;2024-03-23T11:17:37;3.45;;;1.50;;
45434;SDS011;31183;47.404;8.500;2024-03-23T11:20:04;5.43;;;1.58;;
45434;SDS011;31183;47.404;8.500;2024-03-23T11:22:40;5.25;;;2.45;;
45434;SDS011;31183;47.404;8.500;2024-03-23T11:27:38;4.53;;;1.35;;
45434;SDS011;31183;47.404;8.500;2024-03-23T11:30:19;5.15;;;1.40;;
45434;SDS011;31183;47.404;8.500;2024-03-23T11:32:47;6.60;;;2.00;;
45434;SDS011;31183;47.404;8.500;2024-03-23T11:35:24;3.97;;;1.58;;
45434;SDS011;31183;47.404;8.500;2024-03-23T11:38:04;9.63;;;2.80;;
45434;SDS011;31183;47.404;8.500;2024-03-23T11:40:38;7.63;;;2.25;;
45434;SDS011;31183;47.404;8.500;2024-03-23T11:43:09;5.18;;;2.10;;
45434;SDS011;31183;47.404;8.500;2024-03-23T11:45:39;4.75;;;2.47;;
45434;SDS011;31183;47.404;8.500;2024-03-23T11:48:10;5.25;;;2.40;;
45434;SDS011;31183;47.404;8.500;2024-03-23T11:50:38;6.93;;;1.77;;
45434;SDS011;31183;47.404;8.500;2024-03-23T11:55:42;9.63;;;2.50;;
45434;SDS011;31183;47.404;8.500;2024-03-23T11:58:22;5.80;;;2.03;;
45434;SDS011;31183;47.404;8.500;2024-03-23T12:00:58;5.25;;;2.28;;
45434;SDS011;31183;47.404;8.500;2024-03-23T12:03:25;3.92;;;1.45;;
45434;SDS011;31183;47.404;8.500;2024-03-23T12:05:54;4.20;;;1.95;;
45434;SDS011;31183;47.404;8.500;2024-03-23T12:13:17;6.07;;;2.67;;
45434;SDS011;31183;47.404;8.500;2024-03-23T12:15:44;16.17;;;4.53;;
45434;SDS011;31183;47.404;8.500;2024-03-23T12:18:10;8.98;;;2.63;;
45434;SDS011;31183;47.404;8.500;2024-03-23T12:20:37;8.32;;;1.95;;
45434;SDS011;31183;47.404;8.500;2024-03-23T12:23:07;3.85;;;1.75;;
45434;SDS011;31183;47.404;8.500;2024-03-23T12:25:37;3.78;;;1.65;;
45434;SDS011;31183;47.404;8.500;2024-03-23T12:28:06;4.72;;;2.15;;
45434;SDS011;31183;47.404;8.500;2024-03-23T12:30:33;5.05;;;1.67;;
45434;SDS011;31183;47.404;8.500;2024-03-23T12:33:04;7.72;;;1.85;;
45434;SDS011;31183;47.404;8.500;2024-03-23T12:35:30;5.85;;;2.08;;
45434;SDS011;31183;47.404;8.500;2024-03-23T12:37:55;6.93;;;2.15;;
45434;SDS011;31183;47.404;8.500;2024-03-23T12:40:22;6.93;;;1.80;;
45434;SDS011;31183;47.404;8.500;2024-03-23T12:42:48;4.70;;;2.10;;
45434;SDS011;31183;47.404;8.500;2024-03-23T12:45:13;5.80;;;2.05;;
45434;SDS011;31183;47.404;8.500;2024-03-23T12:47:39;6.90;;;1.60;;
45434;SDS011;31183;47.404;8.500;2024-03-23T12:50:05;6.45;;;1.75;;
45434;SDS011;31183;47.404;8.500;2024-03-23T12:52:35;5.10;;;2.30;;
45434;SDS011;31183;47.404;8.500;2024-03-23T12:55:01;4.00;;;1.50;;
45434;SDS011;31183;47.404;8.500;2024-03-23T12:57:28;4.43;;;1.65;;
45434;SDS011;31183;47.404;8.500;2024-03-23T12:59:54;4.43;;;1.92;;
45434;SDS011;31183;47.404;8.500;2024-03-23T13:02:20;5.47;;;2.10;;
45434;SDS011;31183;47.404;8.500;2024-03-23T13:04:49;7.07;;;2.03;;
45434;SDS011;31183;47.404;8.500;2024-03-23T13:07:16;4.70;;;1.65;;
45434;SDS011;31183;47.404;8.500;2024-03-23T13:09:42;6.78;;;2.83;;
45434;SDS011;31183;47.404;8.500;2024-03-23T13:12:08;6.82;;;1.73;;
45434;SDS011;31183;47.404;8.500;2024-03-23T13:14:34;6.20;;;2.05;;
45434;SDS011;31183;47.404;8.500;2024-03-23T13:16:59;8.40;;;1.85;;
45434;SDS011;31183;47.404;8.500;2024-03-23T13:19:26;6.60;;;1.85;;
45434;SDS011;31183;47.404;8.500;2024-03-23T13:21:53;6.70;;;2.67;;
45434;SDS011;31183;47.404;8.500;2024-03-23T13:24:23;7.78;;;2.08;;
45434;SDS011;31183;47.404;8.500;2024-03-23T13:26:50;6.88;;;1.77;;
45434;SDS011;31183;47.404;8.500;2024-03-23T13:29:17;5.90;;;2.05;;
45434;SDS011;31183;47.404;8.500;2024-03-23T13:31:43;4.85;;;1.35;;
45434;SDS011;31183;47.404;8.500;2024-03-23T13:34:09;6.43;;;1.92;;
45434;SDS011;31183;47.404;8.500;2024-03-23T13:36:34;3.63;;;1.50;;
45434;SDS011;31183;47.404;8.500;2024-03-23T13:39:01;4.78;;;1.60;;
45434;SDS011;31183;47.404;8.500;2024-03-23T13:41:43;5.38;;;1.27;;
45434;SDS011;31183;47.404;8.500;2024-03-23T13:44:10;5.28;;;1.70;;
45434;SDS011;31183;47.404;8.500;2024-03-23T13:46:37;6.50;;;2.03;;
45434;SDS011;31183;47.404;8.500;2024-03-23T13:49:04;10.10;;;2.60;;
45434;SDS011;31183;47.404;8.500;2024-03-23T13:51:30;7.43;;;1.90;;
45434;SDS011;31183;47.404;8.500;2024-03-23T13:53:56;4.70;;;1.83;;
45434;SDS011;31183;47.404;8.500;2024-03-23T13:56:22;3.72;;;1.45;;
45434;SDS011;31183;47.404;8.500;2024-03-23T13:58:48;6.53;;;1.80;;
45434;SDS011;31183;47.404;8.500;2024-03-23T14:01:15;8.07;;;1.70;;
45434;SDS011;31183;47.404;8.500;2024-03-23T14:03:41;6.63;;;1.27;;
45434;SDS011;31183;47.404;8.500;2024-03-23T14:06:10;4.22;;;1.60;;
45434;SDS011;31183;47.404;8.500;2024-03-23T14:08:36;4.43;;;1.30;;
45434;SDS011;31183;47.404;8.500;2024-03-23T14:11:07;5.35;;;1.85;;
45434;SDS011;31183;47.404;8.500;2024-03-23T14:13:36;4.10;;;1.55;;
45434;SDS011;31183;47.404;8.500;2024-03-23T14:16:02;4.00;;;1.30;;
45434;SDS011;31183;47.404;8.500;2024-03-23T14:18:28;7.07;;;2.30;;
45434;SDS011;31183;47.404;8.500;2024-03-23T14:20:56;4.10;;;1.50;;
45434;SDS011;31183;47.404;8.500;2024-03-23T14:23:27;3.38;;;1.75;;
45434;SDS011;31183;47.404;8.500;2024-03-23T14:25:58;4.00;;;1.40;;
45434;SDS011;31183;47.404;8.500;2024-03-23T14:28:24;9.35;;;1.98;;
45434;SDS011;31183;47.404;8.500;2024-03-23T14:30:51;3.80;;;1.58;;
45434;SDS011;31183;47.404;8.500;2024-03-23T14:33:17;7.18;;;1.90;;
45434;SDS011;31183;47.404;8.500;2024-03-23T14:35:43;5.80;;;2.20;;
45434;SDS011;31183;47.404;8.500;2024-03-23T14:38:17;5.28;;;2.65;;
45434;SDS011;31183;47.404;8.500;2024-03-23T14:40:43;5.63;;;1.48;;
45434;SDS011;31183;47.404;8.500;2024-03-23T14:43:09;5.22;;;1.60;;
45434;SDS011;31183;47.404;8.500;2024-03-23T14:45:35;4.88;;;1.52;;
45434;SDS011;31183;47.404;8.500;2024-03-23T14:48:02;4.07;;;1.45;;
45434;SDS011;31183;47.404;8.500;2024-03-23T14:50:31;4.13;;;1.83;;
45434;SDS011;31183;47.404;8.500;2024-03-23T14:52:56;4.38;;;2.45;;
45434;SDS011;31183;47.404;8.500;2024-03-23T14:55:22;4.10;;;1.67;;
45434;SDS011;31183;47.404;8.500;2024-03-23T14:57:48;3.97;;;1.35;;
45434;SDS011;31183;47.404;8.500;2024-03-23T15:00:16;6.50;;;1.60;;
45434;SDS011;31183;47.404;8.500;2024-03-23T15:02:43;4.38;;;1.67;;
45434;SDS011;31183;47.404;8.500;2024-03-23T15:05:10;8.68;;;2.67;;
45434;SDS011;31183;47.404;8.500;2024-03-23T15:07:36;6.00;;;1.90;;
45434;SDS011;31183;47.404;8.500;2024-03-23T15:10:05;5.75;;;1.75;;
45434;SDS011;31183;47.404;8.500;2024-03-23T15:12:32;2.53;;;1.08;;
45434;SDS011;31183;47.404;8.500;2024-03-23T15:14:58;2.65;;;1.27;;
45434;SDS011;31183;47.404;8.500;2024-03-23T15:17:25;6.82;;;1.63;;
45434;SDS011;31183;47.404;8.500;2024-03-23T15:19:51;3.50;;;1.40;;
45434;SDS011;31183;47.404;8.500;2024-03-23T15:22:18;4.00;;;1.42;;
45434;SDS011;31183;47.404;8.500;2024-03-23T15:24:45;4.18;;;1.50;;
45434;SDS011;31183;47.404;8.500;2024-03-23T15:27:11;1.88;;;0.98;;
45434;SDS011;31183;47.404;8.500;2024-03-23T15:29:37;6.05;;;1.60;;
45434;SDS011;31183;47.404;8.500;2024-03-23T15:32:03;3.60;;;1.42;;
45434;SDS011;31183;47.404;8.500;2024-03-23T15:34:29;5.88;;;1.77;;
45434;SDS011;31183;47.404;8.500;2024-03-23T15:36:55;4.80;;;1.80;;
45434;SDS011;31183;47.404;8.500;2024-03-23T15:39:20;7.53;;;1.63;;
45434;SDS011;31183;47.404;8.500;2024-03-23T15:41:49;4.55;;;1.75;;
45434;SDS011;31183;47.404;8.500;2024-03-23T15:44:15;3.30;;;1.75;;
45434;SDS011;31183;47.404;8.500;2024-03-23T15:46:40;4.45;;;1.40;;
45434;SDS011;31183;47.404;8.500;2024-03-23T15:49:06;3.80;;;1.38;;
45434;SDS011;31183;47.404;8.500;2024-03-23T15:51:32;5.80;;;1.38;;
45434;SDS011;31183;47.404;8.500;2024-03-23T15:54:00;3.33;;;1.17;;
45434;SDS011;31183;47.404;8.500;2024-03-23T15:56:26;3.92;;;1.80;;
45434;SDS011;31183;47.404;8.500;2024-03-23T15:58:53;2.58;;;1.50;;
45434;SDS011;31183;47.404;8.500;2024-03-23T16:01:19;2.80;;;1.40;;